Time;durP1;ratioP1;P1;durP2;ratioP2;P2;SDS_P1;SDS_P2;PMS_P1;PMS_P2;Temp;Humidity;BMP_temperature;BMP_pressure;BME280_temperature;BME280_humidity;BME280_pressure;Samples;Min_cycle;Max_cycle;Signal;HPM_P1;HPM_P2
2023/03/05 00:02:03;;;;;;;7.82;2.67;;;;;;;13.26;68.21;102110.00;5097919;28;20031;-48
2023/03/05 00:04:28;;;;;;;20.50;3.23;;;;;;;13.34;68.43;102101.84;5095531;28;20052;-51
2023/03/05 00:06:54;;;;;;;12.43;2.63;;;;;;;13.29;68.75;102096.19;5097564;28;20028;-48
2023/03/05 00:09:20;;;;;;;14.75;3.78;;;;;;;13.33;69.01;102100.19;5095317;28;20272;-49
2023/03/05 00:11:46;;;;;;;16.40;3.93;;;;;;;13.45;68.99;102095.22;5097510;28;20028;-51
2023/03/05 00:14:12;;;;;;;11.87;2.60;;;;;;;13.26;69.60;102091.19;5099338;28;20020;-49
2023/03/05 00:16:38;;;;;;;21.58;3.70;;;;;;;13.22;70.48;102081.81;5096054;28;20028;-51
2023/03/05 00:19:04;;;;;;;15.50;2.42;;;;;;;13.31;70.18;102077.22;5097986;28;20032;-52
2023/03/05 00:21:34;;;;;;;10.32;2.60;;;;;;;13.27;69.78;102081.28;5096835;28;20032;-51
2023/03/05 00:24:02;;;;;;;14.13;3.30;;;;;;;13.17;70.32;102068.94;5098331;28;20032;-51
2023/03/05 00:26:28;;;;;;;12.93;3.28;;;;;;;13.27;70.54;102078.59;5102377;28;20036;-53
2023/03/05 00:28:55;;;;;;;14.23;3.25;;;;;;;13.18;70.97;102069.78;5095064;28;20044;-53
2023/03/05 00:31:29;;;;;;;12.35;3.22;;;;;;;13.20;70.61;102073.13;5083133;28;20028;-51
2023/03/05 00:33:58;;;;;;;10.63;2.63;;;;;;;12.98;71.48;102066.75;5077923;28;20033;-53
2023/03/05 00:36:25;;;;;;;13.23;3.28;;;;;;;12.71;73.38;102067.16;5095859;28;20874;-51
2023/03/05 00:38:52;;;;;;;22.23;3.50;;;;;;;12.55;73.73;102064.59;5094236;28;20059;-52
2023/03/05 00:41:18;;;;;;;13.52;3.22;;;;;;;12.79;74.10;102065.41;5102847;28;20056;-52
2023/03/05 00:43:43;;;;;;;12.70;3.70;;;;;;;13.05;72.88;102070.41;5101094;28;20071;-54
2023/03/05 00:46:08;;;;;;;13.67;3.80;;;;;;;12.38;74.59;102074.59;5099921;28;20029;-52
2023/03/05 00:48:34;;;;;;;18.47;3.20;;;;;;;12.76;73.99;102059.41;5100417;28;20038;-49
2023/03/05 00:51:00;;;;;;;12.00;3.47;;;;;;;12.88;73.94;102059.81;5117366;28;20123;-52
2023/03/05 00:53:26;;;;;;;19.40;4.28;;;;;;;12.69;74.32;102058.47;5100651;28;20035;-52
2023/03/05 00:55:51;;;;;;;14.20;3.20;;;;;;;12.42;74.32;102057.13;5097570;28;20060;-49
2023/03/05 00:58:18;;;;;;;16.20;3.53;;;;;;;12.39;73.75;102052.13;5096131;28;20032;-53
2023/03/05 01:00:43;;;;;;;21.23;3.97;;;;;;;12.64;74.76;102052.78;5092076;28;20052;-51
2023/03/05 01:03:08;;;;;;;12.27;3.27;;;;;;;12.82;73.75;102048.94;5077803;28;20043;-49
2023/03/05 01:05:34;;;;;;;12.15;3.78;;;;;;;12.98;72.82;102048.81;5103753;28;20044;-48
2023/03/05 01:08:00;;;;;;;12.73;2.90;;;;;;;12.76;73.16;102051.34;5093994;28;20052;-52
2023/03/05 01:10:27;;;;;;;15.88;3.72;;;;;;;12.61;74.31;102042.41;5080675;28;20032;-51
2023/03/05 01:12:54;;;;;;;17.40;2.97;;;;;;;12.73;73.82;102040.97;5108138;28;20032;-51
2023/03/05 01:15:21;;;;;;;14.27;3.10;;;;;;;13.00;72.46;102044.09;5093897;28;20094;-53
2023/03/05 01:17:46;;;;;;;;;;;;;;;12.24;75.38;102041.31;5094346;28;20055;-51
2023/03/05 01:20:14;;;;;;;13.23;2.47;;;;;;;12.90;73.54;102038.13;5081311;28;19912;-46
2023/03/05 01:22:40;;;;;;;18.52;3.33;;;;;;;12.64;73.98;102035.84;5095459;28;20032;-53
2023/03/05 01:25:05;;;;;;;11.53;2.30;;;;;;;12.69;74.31;102031.63;5095943;28;20067;-51
2023/03/05 01:27:33;;;;;;;15.50;4.05;;;;;;;12.31;76.18;102026.19;5092995;28;20039;-50
2023/03/05 01:29:59;;;;;;;12.32;3.00;;;;;;;12.54;74.46;102011.94;5081802;28;20540;-50
2023/03/05 01:32:24;;;;;;;9.10;2.97;;;;;;;12.16;77.12;102007.34;5095717;28;20024;-49
2023/03/05 01:34:50;;;;;;;11.77;3.50;;;;;;;11.93;78.94;102004.56;5098113;28;20040;-54
2023/03/05 01:37:16;;;;;;;19.40;5.00;;;;;;;12.46;76.29;102002.94;5092398;28;20045;-50
2023/03/05 01:39:41;;;;;;;16.53;3.90;;;;;;;12.25;76.73;101994.72;5076580;28;20080;-49
2023/03/05 01:42:07;;;;;;;12.00;3.50;;;;;;;12.37;76.86;101998.63;5094317;28;20028;-53
2023/03/05 01:44:33;;;;;;;8.25;2.67;;;;;;;12.07;77.78;101998.50;5076160;28;20044;-51
2023/03/05 01:46:59;;;;;;;14.77;3.08;;;;;;;12.31;76.79;101988.63;5074304;28;20032;-50
2023/03/05 01:49:34;;;;;;;20.13;4.32;;;;;;;12.26;76.94;101985.66;5096742;28;20033;-54
2023/03/05 01:52:20;;;;;;;11.30;2.90;;;;;;;12.17;78.06;101995.59;5095663;28;20032;-51
2023/03/05 01:54:49;;;;;;;12.20;2.95;;;;;;;12.12;77.90;101984.59;5093995;28;20028;-50
2023/03/05 01:57:29;;;;;;;13.70;3.03;;;;;;;12.46;76.75;101968.06;5094396;28;20035;-49
2023/03/05 01:59:59;;;;;;;19.73;2.70;;;;;;;12.66;75.45;101969.41;5113761;28;20044;-52
2023/03/05 02:02:25;;;;;;;10.63;2.50;;;;;;;12.11;78.07;101958.75;5082792;28;20038;-49
2023/03/05 02:04:58;;;;;;;13.93;3.43;;;;;;;12.28;77.06;101962.16;5093281;28;20024;-51
2023/03/05 02:07:24;;;;;;;14.38;3.00;;;;;;;12.54;75.94;101960.97;5098600;28;20051;-50
2023/03/05 02:09:50;;;;;;;16.70;3.72;;;;;;;12.59;75.34;101954.03;5098268;28;20039;-51
2023/03/05 02:12:16;;;;;;;11.00;2.58;;;;;;;12.34;76.90;101945.34;5099074;28;20033;-50
2023/03/05 02:14:47;;;;;;;18.35;3.83;;;;;;;12.13;77.43;101938.78;5101023;28;20048;-49
2023/03/05 02:17:15;;;;;;;8.02;2.90;;;;;;;12.33;77.27;101939.13;5098403;28;20032;-48
2023/03/05 02:19:53;;;;;;;12.52;3.33;;;;;;;12.64;75.61;101939.22;5100898;28;20032;-53
2023/03/05 02:22:21;;;;;;;13.73;3.90;;;;;;;12.56;75.28;101935.59;5097679;28;20036;-53
2023/03/05 02:24:47;;;;;;;17.02;4.60;;;;;;;12.51;76.14;101938.00;5095810;28;20047;-52
2023/03/05 02:27:14;;;;;;;19.73;4.90;;;;;;;12.43;76.97;101928.16;5100417;28;20106;-49
2023/03/05 02:29:44;;;;;;;15.35;4.75;;;;;;;12.39;77.46;101926.03;5100313;28;20032;-50
2023/03/05 02:32:10;;;;;;;20.48;5.72;;;;;;;12.32;77.41;101923.25;5093646;28;20028;-50
2023/03/05 02:34:36;;;;;;;11.95;4.13;;;;;;;12.54;76.91;101918.84;5082638;28;20032;-50
2023/03/05 02:37:03;;;;;;;15.93;3.92;;;;;;;12.17;77.59;101923.19;5094681;28;20062;-50
2023/03/05 02:39:30;;;;;;;9.60;3.10;;;;;;;12.54;77.25;101924.22;5082573;28;20057;-47
2023/03/05 02:41:56;;;;;;;16.67;3.35;;;;;;;12.38;77.64;101922.50;5099255;28;20029;-50
2023/03/05 02:44:22;;;;;;;8.77;2.80;;;;;;;12.24;79.22;101913.41;5112863;28;20032;-48
2023/03/05 02:46:48;;;;;;;10.47;2.60;;;;;;;12.29;78.73;101918.25;5085020;28;20082;-48
2023/03/05 02:49:14;;;;;;;11.30;2.88;;;;;;;12.14;79.05;101902.09;5105513;28;20273;-49
2023/03/05 02:51:40;;;;;;;15.02;3.22;;;;;;;12.52;77.82;101912.00;5104203;28;20047;-50
2023/03/05 02:54:06;;;;;;;10.50;2.80;;;;;;;12.47;77.88;101896.44;5101707;28;20016;-53
2023/03/05 02:56:33;;;;;;;12.80;2.78;;;;;;;12.58;77.36;101905.91;5082740;28;20061;-49
2023/03/05 02:59:00;;;;;;;;;;;;;;;12.35;77.95;101897.91;5085375;28;20032;-53
2023/03/05 03:01:27;;;;;;;17.30;3.13;;;;;;;12.32;78.98;101899.09;5081031;28;19912;-49
2023/03/05 03:03:53;;;;;;;6.10;2.47;;;;;;;12.19;78.30;101897.84;5102479;28;20035;-49
2023/03/05 03:06:19;;;;;;;9.50;2.65;;;;;;;12.66;77.37;101889.72;5100121;28;20063;-50
2023/03/05 03:08:44;;;;;;;9.85;2.78;;;;;;;12.16;78.10;101884.81;5103912;28;20024;-48
2023/03/05 03:11:11;;;;;;;18.87;3.30;;;;;;;12.59;77.17;101889.63;5103279;28;20044;-47
2023/03/05 03:13:37;;;;;;;16.70;3.30;;;;;;;11.88;79.35;101881.81;5104825;28;20096;-50
2023/03/05 03:16:04;;;;;;;14.52;2.78;;;;;;;12.40;78.48;101877.56;5102303;28;20107;-55
2023/03/05 03:18:30;;;;;;;12.00;2.85;;;;;;;12.37;78.71;101888.66;5102605;28;20048;-50
2023/03/05 03:20:55;;;;;;;13.98;3.70;;;;;;;12.54;77.51;101881.28;5103005;28;20112;-50
2023/03/05 03:23:21;;;;;;;23.83;3.97;;;;;;;12.61;77.37;101881.38;5103317;28;20033;-49
2023/03/05 03:25:47;;;;;;;12.30;2.90;;;;;;;12.67;77.62;101869.91;5102466;28;20064;-50
2023/03/05 03:28:12;;;;;;;9.50;2.47;;;;;;;12.56;78.77;101868.50;5103727;28;20102;-48
2023/03/05 03:30:37;;;;;;;12.47;3.80;;;;;;;12.52;78.16;101867.22;5102186;28;20028;-48
2023/03/05 03:33:03;;;;;;;9.75;2.60;;;;;;;12.56;78.65;101857.78;5101624;28;20040;-52
2023/03/05 03:35:29;;;;;;;18.93;2.70;;;;;;;12.46;79.00;101858.06;5100700;28;20032;-51
2023/03/05 03:37:55;;;;;;;6.45;2.50;;;;;;;11.85;82.39;101858.88;5102183;28;20036;-50
2023/03/05 03:40:21;;;;;;;10.68;2.45;;;;;;;11.70;84.98;101852.63;5102011;28;20035;-52
2023/03/05 03:42:46;;;;;;;12.35;2.65;;;;;;;12.38;81.20;101852.75;5099831;28;20088;-49
2023/03/05 03:45:12;;;;;;;17.03;2.57;;;;;;;12.14;81.75;101860.03;5101538;28;20032;-51
2023/03/05 03:47:37;;;;;;;11.35;2.40;;;;;;;12.25;81.13;101849.88;5100867;28;20036;-50
2023/03/05 03:50:03;;;;;;;7.83;2.00;;;;;;;12.37;81.14;101853.78;5100095;28;20596;-50
2023/03/05 03:52:29;;;;;;;15.45;2.67;;;;;;;11.99;82.08;101843.84;5096820;28;20051;-52
2023/03/05 03:55:00;;;;;;;6.18;1.85;;;;;;;12.09;81.64;101842.78;5100999;28;20040;-51
2023/03/05 03:57:27;;;;;;;11.07;2.67;;;;;;;12.39;80.54;101840.19;5103463;28;20037;-51
2023/03/05 03:59:53;;;;;;;9.48;2.63;;;;;;;12.11;80.54;101838.94;5099435;28;20036;-51
2023/03/05 04:02:18;;;;;;;10.77;2.40;;;;;;;12.17;81.12;101827.47;5098006;28;20032;-47
2023/03/05 04:04:44;;;;;;;14.70;2.47;;;;;;;11.81;83.48;101822.72;5100129;28;20039;-49
2023/03/05 04:07:10;;;;;;;12.40;2.33;;;;;;;11.75;83.99;101820.75;5102853;28;20297;-52
2023/03/05 04:09:35;;;;;;;8.82;3.10;;;;;;;12.00;82.96;101820.59;5101136;28;20060;-49
2023/03/05 04:12:01;;;;;;;8.80;3.00;;;;;;;11.55;85.72;101823.94;5104274;28;20044;-52
2023/03/05 04:14:26;;;;;;;13.57;4.00;;;;;;;12.01;83.40;101811.56;5103562;28;20029;-49
2023/03/05 04:16:52;;;;;;;10.80;4.23;;;;;;;11.81;83.13;101811.16;5102074;28;20036;-49
2023/03/05 04:19:18;;;;;;;21.13;4.32;;;;;;;11.89;83.60;101811.13;5100170;28;20341;-52
2023/03/05 04:21:43;;;;;;;18.00;3.80;;;;;;;12.15;82.24;101807.25;5102834;28;20032;-48
2023/03/05 04:24:09;;;;;;;23.73;4.93;;;;;;;12.12;82.43;101805.75;5102773;28;20041;-48
2023/03/05 04:26:35;;;;;;;17.77;4.47;;;;;;;11.76;84.40;101803.66;5101538;28;20032;-50
2023/03/05 04:29:00;;;;;;;16.20;4.05;;;;;;;12.13;82.92;101804.72;5099201;28;20029;-51
2023/03/05 04:31:26;;;;;;;20.43;3.47;;;;;;;11.45;86.43;101800.06;5096786;28;20097;-51
2023/03/05 04:33:52;;;;;;;29.67;3.87;;;;;;;11.84;84.57;101800.09;5097856;28;20293;-51
2023/03/05 04:36:17;;;;;;;13.23;3.43;;;;;;;11.73;84.90;101793.31;5097397;28;20052;-49
2023/03/05 04:38:43;;;;;;;18.90;3.40;;;;;;;11.55;85.29;101791.78;5095347;28;20060;-52
2023/03/05 04:41:08;;;;;;;10.90;3.10;;;;;;;11.52;85.15;101784.06;5096221;28;20036;-50
2023/03/05 04:43:34;;;;;;;10.73;3.50;;;;;;;11.77;84.61;101789.28;5094854;28;20261;-48
2023/03/05 04:45:59;;;;;;;12.80;5.40;;;;;;;12.05;83.18;101788.72;5094427;28;20095;-55
2023/03/05 04:48:25;;;;;;;15.10;3.20;;;;;;;11.98;82.42;101787.72;5094938;28;20040;-50
2023/03/05 04:50:50;;;;;;;18.40;2.80;;;;;;;12.14;82.53;101782.25;5097125;28;20272;-49
2023/03/05 04:53:16;;;;;;;7.33;2.87;;;;;;;12.25;81.55;101777.47;5095642;28;20084;-49
2023/03/05 04:55:42;;;;;;;15.90;3.33;;;;;;;12.06;82.44;101776.97;5097588;28;20055;-49
2023/03/05 04:58:08;;;;;;;12.70;2.90;;;;;;;11.64;83.91;101775.63;5097309;28;20047;-47
2023/03/05 05:00:34;;;;;;;4.78;1.88;;;;;;;11.44;86.56;101776.09;5097700;28;20062;-47
2023/03/05 05:02:59;;;;;;;11.20;2.30;;;;;;;11.58;85.47;101775.34;5095550;28;20020;-49
2023/03/05 05:05:27;;;;;;;9.40;3.00;;;;;;;11.76;84.80;101763.47;5099591;28;20028;-49
2023/03/05 05:07:57;;;;;;;11.80;3.67;;;;;;;11.98;83.72;101763.59;5099219;28;20058;-49
2023/03/05 05:10:24;;;;;;;14.80;4.43;;;;;;;12.13;82.70;101761.81;5099351;28;20036;-48
2023/03/05 05:12:49;;;;;;;14.40;3.97;;;;;;;12.09;82.77;101759.69;5098884;28;20052;-52
2023/03/05 05:15:15;;;;;;;10.75;2.92;;;;;;;11.26;86.72;101755.78;5099571;28;20046;-54
2023/03/05 05:17:40;;;;;;;14.63;3.40;;;;;;;11.10;88.27;101761.28;5102501;28;20084;-52
2023/03/05 05:20:09;;;;;;;13.10;3.60;;;;;;;11.21;87.74;101758.19;5099398;28;20035;-50
2023/03/05 05:22:35;;;;;;;15.55;4.93;;;;;;;11.05;88.86;101748.41;5076486;28;20156;-51
2023/03/05 05:25:01;;;;;;;13.40;3.90;;;;;;;11.47;87.75;101751.63;5099761;28;20040;-49
2023/03/05 05:27:26;;;;;;;11.18;3.58;;;;;;;11.35;87.93;101751.22;5095780;28;20044;-48
2023/03/05 05:29:52;;;;;;;9.83;3.97;;;;;;;11.28;88.44;101748.41;5097355;28;20087;-52
2023/03/05 05:32:19;;;;;;;15.90;3.80;;;;;;;11.29;89.02;101744.72;5101455;28;20035;-49
2023/03/05 05:34:45;;;;;;;9.40;3.13;;;;;;;10.99;90.76;101741.09;5095603;28;20040;-53
2023/03/05 05:37:11;;;;;;;11.30;3.77;;;;;;;11.18;89.90;101747.81;5102769;28;20040;-48
2023/03/05 05:39:36;;;;;;;14.47;3.57;;;;;;;11.36;88.48;101741.34;5101022;28;20270;-48
2023/03/05 05:42:02;;;;;;;13.37;4.20;;;;;;;10.92;91.37;101743.63;5096990;28;20036;-48
2023/03/05 05:44:28;;;;;;;14.23;3.95;;;;;;;11.60;88.03;101740.31;5102338;28;20035;-49
2023/03/05 05:46:54;;;;;;;16.50;4.07;;;;;;;11.17;90.09;101741.63;5098064;28;20028;-53
2023/03/05 05:49:20;;;;;;;11.85;3.78;;;;;;;11.54;88.29;101736.53;5095482;28;20025;-50
2023/03/05 05:51:45;;;;;;;13.97;3.80;;;;;;;11.56;87.49;101729.16;5097360;28;20040;-54
2023/03/05 05:54:12;;;;;;;11.90;4.93;;;;;;;11.88;85.84;101729.03;5099993;28;20120;-52
2023/03/05 05:56:38;;;;;;;15.85;4.05;;;;;;;11.62;86.39;101728.41;5090044;28;20059;-51
2023/03/05 05:59:04;;;;;;;9.67;4.50;;;;;;;11.39;88.24;101727.59;5098144;28;20052;-52
2023/03/05 06:01:31;;;;;;;10.98;4.10;;;;;;;11.70;87.94;101726.69;5095668;28;20087;-53
2023/03/05 06:03:57;;;;;;;10.80;4.63;;;;;;;11.53;88.67;101724.13;5092175;28;20032;-51
2023/03/05 06:06:24;;;;;;;12.53;5.40;;;;;;;11.84;87.61;101733.06;5103664;28;20037;-52
2023/03/05 06:08:50;;;;;;;11.98;3.97;;;;;;;11.45;88.66;101732.25;5103342;28;20044;-47
2023/03/05 06:11:17;;;;;;;7.13;3.60;;;;;;;11.53;88.12;101726.00;5102570;28;20028;-52
2023/03/05 06:13:43;;;;;;;6.10;3.50;;;;;;;11.72;88.00;101728.16;5101118;28;20055;-50
2023/03/05 06:16:12;;;;;;;10.13;3.90;;;;;;;11.51;88.65;101715.44;5100689;28;20032;-51
2023/03/05 06:18:38;;;;;;;7.93;3.47;;;;;;;11.58;87.87;101720.91;5094910;28;20035;-47
2023/03/05 06:21:06;;;;;;;9.70;3.78;;;;;;;11.74;89.00;101717.25;5094955;28;20036;-53
2023/03/05 06:23:32;;;;;;;10.38;3.72;;;;;;;11.66;89.18;101720.03;5096596;28;20035;-50
2023/03/05 06:25:59;;;;;;;11.82;3.72;;;;;;;11.55;89.48;101722.13;5098795;28;20451;-54
2023/03/05 06:28:25;;;;;;;9.73;3.92;;;;;;;10.85;94.41;101711.38;5101120;28;20028;-49
2023/03/05 06:31:02;;;;;;;19.10;5.37;;;;;;;11.68;91.00;101715.31;5100154;28;20114;-52
2023/03/05 06:33:28;;;;;;;18.70;5.75;;;;;;;11.62;90.65;101711.50;5098289;28;20088;-52
2023/03/05 06:35:53;;;;;;;14.35;4.60;;;;;;;11.57;88.99;101713.91;5098584;28;20713;-48
2023/03/05 06:38:19;;;;;;;13.05;4.93;;;;;;;11.98;88.20;101715.34;5098928;28;20070;-54
2023/03/05 06:40:45;;;;;;;12.90;4.18;;;;;;;11.51;90.07;101719.97;5095626;28;20126;-51
2023/03/05 06:43:11;;;;;;;10.37;3.60;;;;;;;12.24;86.52;101716.81;5099338;28;20036;-53
2023/03/05 06:45:36;;;;;;;6.90;3.58;;;;;;;12.40;85.43;101721.97;5098974;28;20111;-51
2023/03/05 06:48:01;;;;;;;9.47;3.67;;;;;;;11.90;86.96;101718.97;5097022;28;20043;-52
2023/03/05 06:50:27;;;;;;;7.47;3.17;;;;;;;11.87;89.35;101722.00;5101456;28;20035;-49
2023/03/05 06:52:52;;;;;;;6.67;3.43;;;;;;;11.79;88.94;101714.03;5098097;28;20102;-52
2023/03/05 06:55:18;;;;;;;13.60;3.30;;;;;;;11.97;89.06;101721.72;5098104;28;20097;-52
2023/03/05 06:57:44;;;;;;;6.65;3.42;;;;;;;12.07;86.66;101721.50;5101033;28;20028;-51
2023/03/05 07:00:10;;;;;;;10.27;3.55;;;;;;;12.19;86.08;101718.19;5097912;28;20055;-52
2023/03/05 07:02:37;;;;;;;8.18;3.00;;;;;;;12.11;86.39;101720.09;5095259;28;20057;-47
2023/03/05 07:05:03;;;;;;;9.52;3.97;;;;;;;12.10;86.53;101719.28;5099048;28;20063;-52
2023/03/05 07:07:28;;;;;;;5.93;2.90;;;;;;;12.12;86.76;101711.06;5101567;28;20104;-57
2023/03/05 07:09:54;;;;;;;8.57;2.90;;;;;;;11.97;87.76;101714.53;5093143;28;20040;-51
2023/03/05 07:12:20;;;;;;;10.43;3.07;;;;;;;12.19;86.25;101718.19;5100617;28;20036;-54
2023/03/05 07:14:46;;;;;;;4.43;2.67;;;;;;;11.96;88.28;101712.88;5096396;28;20059;-54
2023/03/05 07:17:14;;;;;;;7.17;2.83;;;;;;;12.07;87.99;101714.31;5096958;28;20029;-52
2023/03/05 07:19:40;;;;;;;7.50;2.50;;;;;;;12.23;86.36;101712.47;5096832;28;20044;-53
2023/03/05 07:22:06;;;;;;;5.75;2.50;;;;;;;11.85;88.45;101721.34;5100173;28;20044;-52
2023/03/05 07:24:32;;;;;;;7.75;2.40;;;;;;;11.90;88.44;101717.09;5098302;28;20031;-48
2023/03/05 07:26:58;;;;;;;10.13;2.30;;;;;;;12.00;89.36;101714.16;5101053;28;20104;-52
2023/03/05 07:29:25;;;;;;;7.88;1.90;;;;;;;11.58;90.70;101708.38;5103068;28;20032;-54
2023/03/05 07:31:51;;;;;;;7.80;2.47;;;;;;;12.40;87.46;101713.91;5102100;28;20032;-49
2023/03/05 07:34:16;;;;;;;8.13;2.50;;;;;;;11.99;88.57;101717.00;5100322;28;20054;-50
2023/03/05 07:36:42;;;;;;;8.00;2.20;;;;;;;12.12;88.10;101711.06;5100221;28;20052;-50
2023/03/05 07:39:10;;;;;;;5.60;2.20;;;;;;;11.97;89.22;101713.69;5102483;28;20036;-53
2023/03/05 07:41:35;;;;;;;6.18;2.40;;;;;;;11.84;88.08;101711.63;5102969;28;20028;-53
2023/03/05 07:44:01;;;;;;;5.93;2.07;;;;;;;12.12;88.63;101709.22;5099598;28;20036;-51
2023/03/05 07:46:30;;;;;;;7.23;3.27;;;;;;;12.81;84.58;101711.75;5098889;28;20136;-54
2023/03/05 07:48:56;;;;;;;5.43;1.88;;;;;;;12.44;84.34;101703.66;5099617;28;20280;-51
2023/03/05 07:51:24;;;;;;;4.57;1.90;;;;;;;12.70;84.35;101710.38;5101824;28;20036;-50
2023/03/05 07:53:51;;;;;;;5.07;2.15;;;;;;;12.25;85.75;101702.38;5104050;28;20036;-50
2023/03/05 07:56:23;;;;;;;3.80;1.63;;;;;;;12.44;84.83;101701.78;5105821;28;20028;-52
2023/03/05 07:58:49;;;;;;;9.40;2.08;;;;;;;12.44;85.93;101698.28;5110582;28;20037;-53
2023/03/05 08:01:14;;;;;;;6.18;2.47;;;;;;;12.54;85.30;101693.44;5100113;28;20047;-50
2023/03/05 08:03:42;;;;;;;8.07;2.15;;;;;;;12.54;85.29;101701.50;5100030;28;20031;-52
2023/03/05 08:06:09;;;;;;;6.10;2.05;;;;;;;12.55;84.87;101700.47;5099073;28;20056;-51
2023/03/05 08:08:35;;;;;;;9.45;2.67;;;;;;;13.14;82.83;101697.81;5099080;28;20050;-50
2023/03/05 08:11:18;;;;;;;11.18;2.63;;;;;;;12.55;85.06;101696.97;5098177;28;20064;-51
2023/03/05 08:13:44;;;;;;;8.23;2.25;;;;;;;13.36;81.15;101695.13;5101287;28;20032;-49
2023/03/05 08:16:18;;;;;;;5.90;1.93;;;;;;;13.27;80.60;101699.84;5100447;28;20096;-49
2023/03/05 08:18:45;;;;;;;9.80;2.67;;;;;;;13.34;80.64;101698.03;5097378;28;20040;-54
2023/03/05 08:21:37;;;;;;;3.53;1.83;;;;;;;12.91;81.40;101693.47;5100601;28;20119;-49
2023/03/05 08:24:05;;;;;;;7.75;1.90;;;;;;;12.91;81.32;101688.09;5096044;28;20092;-54
2023/03/05 08:26:33;;;;;;;6.28;2.10;;;;;;;12.98;81.32;101691.69;5100937;28;20036;-51
2023/03/05 08:28:58;;;;;;;6.57;1.70;;;;;;;12.95;81.68;101683.19;5096769;28;20025;-52
2023/03/05 08:31:26;;;;;;;4.22;2.28;;;;;;;13.18;81.91;101681.16;5103681;28;20035;-48
2023/03/05 08:33:54;;;;;;;11.98;3.15;;;;;;;13.56;80.02;101682.72;5098555;28;20041;-48
2023/03/05 08:36:20;;;;;;;4.03;1.80;;;;;;;12.83;82.47;101685.53;5099810;28;20086;-51
2023/03/05 08:38:47;;;;;;;3.53;1.98;;;;;;;13.26;81.26;101679.34;5100596;28;20063;-52
2023/03/05 08:41:14;;;;;;;4.55;1.90;;;;;;;12.76;83.99;101672.88;5101464;28;20029;-50
2023/03/05 08:43:41;;;;;;;9.20;2.22;;;;;;;12.74;83.84;101677.59;5086131;28;20028;-51
2023/03/05 08:46:06;;;;;;;3.55;1.83;;;;;;;12.77;84.39;101674.53;5103291;28;20058;-52
2023/03/05 08:48:33;;;;;;;6.47;1.92;;;;;;;12.35;86.34;101667.25;5100499;28;20092;-54
2023/03/05 08:51:11;;;;;;;4.13;2.03;;;;;;;12.22;87.07;101668.72;5100200;28;20032;-50
2023/03/05 08:53:38;;;;;;;7.15;1.90;;;;;;;12.45;87.51;101668.56;5099609;28;20039;-52
2023/03/05 08:56:04;;;;;;;5.50;1.52;;;;;;;12.28;87.94;101665.28;5101008;28;20028;-48
2023/03/05 08:58:31;;;;;;;4.97;2.03;;;;;;;12.66;86.35;101668.84;5098433;28;20092;-50
2023/03/05 09:00:56;;;;;;;2.83;1.48;;;;;;;12.83;85.19;101664.91;5096475;28;20086;-48
2023/03/05 09:03:21;;;;;;;2.40;1.43;;;;;;;12.86;85.57;101664.53;5076840;28;20099;-49
2023/03/05 09:05:47;;;;;;;5.37;1.70;;;;;;;12.73;85.96;101659.00;5101323;28;20075;-50
2023/03/05 09:08:12;;;;;;;5.53;1.63;;;;;;;12.23;91.20;101653.47;5098679;28;20052;-49
2023/03/05 09:10:41;;;;;;;3.17;1.70;;;;;;;12.47;89.36;101657.69;5097085;28;20032;-50
2023/03/05 09:13:06;;;;;;;6.18;1.95;;;;;;;12.21;91.43;101650.97;5097474;28;20036;-50
2023/03/05 09:15:32;;;;;;;6.50;1.57;;;;;;;12.62;88.28;101649.59;5094763;28;20044;-52
2023/03/05 09:17:58;;;;;;;4.10;1.60;;;;;;;12.97;85.94;101655.13;5095975;28;20051;-50
2023/03/05 09:20:24;;;;;;;3.07;1.60;;;;;;;13.03;85.10;101648.16;5101123;28;20316;-52
2023/03/05 09:22:49;;;;;;;2.42;1.30;;;;;;;13.01;84.40;101653.72;5093902;28;20029;-52
2023/03/05 09:25:14;;;;;;;4.17;1.97;;;;;;;13.09;84.10;101646.56;5094789;28;20032;-53
2023/03/05 09:27:40;;;;;;;3.43;1.33;;;;;;;13.43;82.62;101643.16;5092787;28;20040;-51
2023/03/05 09:30:06;;;;;;;3.07;1.50;;;;;;;13.32;83.20;101643.66;5096310;28;20283;-52
2023/03/05 09:32:32;;;;;;;4.97;1.30;;;;;;;13.46;83.16;101637.38;5099717;28;20040;-48
2023/03/05 09:34:59;;;;;;;1.50;1.10;;;;;;;13.72;81.98;101640.47;5080313;28;20091;-50
2023/03/05 09:37:24;;;;;;;3.17;1.13;;;;;;;13.88;81.38;101634.78;5097409;28;20056;-51
2023/03/05 09:39:50;;;;;;;2.70;0.97;;;;;;;13.84;79.73;101638.91;5098270;28;20273;-49
2023/03/05 09:42:37;;;;;;;4.10;1.05;;;;;;;14.08;78.40;101636.75;5092478;28;20044;-51
2023/03/05 09:45:17;;;;;;;1.08;0.80;;;;;;;14.19;77.12;101638.88;5094315;28;20040;-49
2023/03/05 09:47:53;;;;;;;1.88;0.80;;;;;;;14.74;73.82;101638.03;5095769;28;20067;-48
2023/03/05 09:50:30;;;;;;;1.42;0.88;;;;;;;14.78;73.65;101641.16;5097479;28;20100;-49
2023/03/05 09:53:05;;;;;;;3.78;1.10;;;;;;;15.05;72.13;101633.97;5097209;28;20047;-51
2023/03/05 09:55:39;;;;;;;2.28;1.20;;;;;;;14.66;71.41;101632.00;5093711;28;20033;-52
2023/03/05 09:58:18;;;;;;;2.63;0.88;;;;;;;15.09;71.84;101636.25;5096388;28;20043;-52
2023/03/05 10:00:49;;;;;;;2.35;0.88;;;;;;;14.95;71.25;101632.72;5094094;28;20064;-51
2023/03/05 10:03:27;;;;;;;6.50;1.70;;;;;;;15.14;71.13;101629.22;5078136;28;20038;-50
2023/03/05 10:06:04;;;;;;;1.27;1.00;;;;;;;15.72;69.63;101627.69;5093049;28;20067;-50
2023/03/05 10:08:50;;;;;;;3.42;1.30;;;;;;;15.17;69.80;101617.16;5090987;28;20029;-51
2023/03/05 10:11:29;;;;;;;1.70;1.05;;;;;;;15.17;70.19;101614.47;5096765;28;20059;-51
2023/03/05 10:13:55;;;;;;;1.93;0.80;;;;;;;16.62;67.30;101620.72;5098179;28;20039;-52
2023/03/05 10:16:54;;;;;;;2.63;1.33;;;;;;;16.86;64.97;101625.59;5100055;28;20272;-50
2023/03/05 10:19:52;;;;;;;2.33;1.10;;;;;;;18.32;61.54;101623.59;5097918;28;20333;-52
2023/03/05 10:22:22;;;;;;;4.40;1.47;;;;;;;18.43;59.97;101617.38;5070028;28;20269;-50
2023/03/05 10:25:12;;;;;;;5.10;1.50;;;;;;;19.04;56.91;101616.53;5097457;28;20265;-50
2023/03/05 10:27:51;;;;;;;2.87;1.37;;;;;;;18.72;57.21;101614.06;5100129;28;20296;-53
2023/03/05 10:30:28;;;;;;;3.77;0.90;;;;;;;17.58;57.75;101611.69;5089777;28;20273;-51
2023/03/05 10:33:10;;;;;;;2.90;1.30;;;;;;;17.17;58.87;101615.81;5101211;28;20277;-49
2023/03/05 10:36:12;;;;;;;10.37;1.97;;;;;;;17.05;59.34;101613.81;5095750;28;20260;-48
2023/03/05 10:39:05;;;;;;;3.47;1.47;;;;;;;16.58;60.73;101603.31;5096783;28;20324;-45
2023/03/05 10:41:55;;;;;;;7.33;1.70;;;;;;;15.91;61.53;101600.91;5094926;28;20289;-53
2023/03/05 10:44:40;;;;;;;4.93;1.40;;;;;;;15.74;62.75;101597.84;5096852;28;20257;-53
2023/03/05 10:47:24;;;;;;;5.97;1.60;;;;;;;15.76;63.07;101595.75;5093752;28;20300;-51
2023/03/05 10:49:53;;;;;;;7.77;1.90;;;;;;;15.80;63.63;101594.28;5098538;28;20265;-50
2023/03/05 10:52:26;;;;;;;5.43;2.00;;;;;;;15.33;65.21;101581.72;5092849;28;20264;-50
2023/03/05 10:54:51;;;;;;;2.73;1.67;;;;;;;15.40;64.93;101584.41;5096081;28;20317;-49
2023/03/05 10:57:20;;;;;;;2.50;1.70;;;;;;;15.65;63.88;101574.81;5094163;28;20329;-50
2023/03/05 10:59:46;;;;;;;4.00;2.17;;;;;;;15.76;63.43;101575.00;5101256;28;20036;-51
2023/03/05 11:02:12;;;;;;;2.93;1.40;;;;;;;15.77;63.01;101568.56;5103206;28;20268;-50
2023/03/05 11:04:39;;;;;;;2.83;1.35;;;;;;;16.19;61.45;101573.63;5097944;28;20265;-50
2023/03/05 11:07:05;;;;;;;;;;;;;;;16.27;62.03;101559.06;5098804;28;20040;-53
2023/03/05 11:09:31;;;;;;;1.88;1.23;;;;;;;16.63;60.28;101567.56;5103491;28;19912;-53
2023/03/05 11:12:05;;;;;;;6.32;1.80;;;;;;;17.05;59.28;101559.78;5100031;28;20040;-52
2023/03/05 11:14:35;;;;;;;3.40;1.47;;;;;;;16.42;58.82;101561.47;5100988;28;20087;-51
2023/03/05 11:17:21;;;;;;;4.83;1.50;;;;;;;17.30;57.23;101558.94;5098507;28;20292;-50
2023/03/05 11:19:47;;;;;;;2.37;1.00;;;;;;;17.67;55.45;101557.31;5099353;28;20264;-52
2023/03/05 11:22:19;;;;;;;2.23;1.00;;;;;;;17.69;54.89;101549.78;5097895;28;20317;-50
2023/03/05 11:25:11;;;;;;;3.37;1.10;;;;;;;17.86;54.27;101550.84;5094408;28;20322;-50
2023/03/05 11:27:47;;;;;;;1.83;0.77;;;;;;;17.81;53.79;101545.28;5094205;28;20265;-53